sensor_id;sensor_type;location;lat;lon;timestamp;temperature;humidity
5962;DHT22;3007;50.770;0.250;2023-03-01T00:01:40;1.20;99.90
5962;DHT22;3007;50.770;0.250;2023-03-01T00:04:08;1.10;99.90
5962;DHT22;3007;50.770;0.250;2023-03-01T00:06:35;1.10;99.90
5962;DHT22;3007;50.770;0.250;2023-03-01T00:09:02;1.10;99.90
5962;DHT22;3007;50.770;0.250;2023-03-01T00:11:31;1.10;99.90
5962;DHT22;3007;50.770;0.250;2023-03-01T00:14:02;1.10;99.90
5962;DHT22;3007;50.770;0.250;2023-03-01T00:16:34;1.10;99.90
5962;DHT22;3007;50.770;0.250;2023-03-01T00:19:04;1.10;99.90
5962;DHT22;3007;50.770;0.250;2023-03-01T00:21:33;1.10;99.90
5962;DHT22;3007;50.770;0.250;2023-03-01T00:24:00;1.20;99.90
5962;DHT22;3007;50.770;0.250;2023-03-01T00:26:27;1.10;99.90
5962;DHT22;3007;50.770;0.250;2023-03-01T00:28:56;1.10;99.90
5962;DHT22;3007;50.770;0.250;2023-03-01T00:31:26;1.10;99.90
5962;DHT22;3007;50.770;0.250;2023-03-01T00:33:53;1.10;99.90
5962;DHT22;3007;50.770;0.250;2023-03-01T00:36:22;1.10;99.90
5962;DHT22;3007;50.770;0.250;2023-03-01T00:38:51;1.10;99.90
5962;DHT22;3007;50.770;0.250;2023-03-01T00:41:19;1.10;99.90
5962;DHT22;3007;50.770;0.250;2023-03-01T00:43:50;1.00;99.90
5962;DHT22;3007;50.770;0.250;2023-03-01T00:46:19;1.00;99.90
5962;DHT22;3007;50.770;0.250;2023-03-01T00:48:46;1.00;99.90
5962;DHT22;3007;50.770;0.250;2023-03-01T00:51:15;1.00;99.90
5962;DHT22;3007;50.770;0.250;2023-03-01T00:53:43;1.10;99.90
5962;DHT22;3007;50.770;0.250;2023-03-01T00:56:13;1.00;99.90
5962;DHT22;3007;50.770;0.250;2023-03-01T00:58:40;1.00;99.90
5962;DHT22;3007;50.770;0.250;2023-03-01T01:01:09;1.10;99.90
5962;DHT22;3007;50.770;0.250;2023-03-01T01:03:44;1.00;99.90
5962;DHT22;3007;50.770;0.250;2023-03-01T01:06:15;1.10;99.90
5962;DHT22;3007;50.770;0.250;2023-03-01T01:08:42;1.10;99.90
5962;DHT22;3007;50.770;0.250;2023-03-01T01:11:11;1.10;99.90
5962;DHT22;3007;50.770;0.250;2023-03-01T01:13:43;1.10;99.90
5962;DHT22;3007;50.770;0.250;2023-03-01T01:16:10;1.10;99.90
5962;DHT22;3007;50.770;0.250;2023-03-01T01:18:37;1.10;99.90
5962;DHT22;3007;50.770;0.250;2023-03-01T01:21:07;1.10;99.90
5962;DHT22;3007;50.770;0.250;2023-03-01T01:23:34;1.10;99.90
5962;DHT22;3007;50.770;0.250;2023-03-01T01:26:05;1.10;99.90
5962;DHT22;3007;50.770;0.250;2023-03-01T01:28:33;1.10;99.90
5962;DHT22;3007;50.770;0.250;2023-03-01T01:31:01;1.20;99.90
5962;DHT22;3007;50.770;0.250;2023-03-01T01:33:27;1.10;99.90
5962;DHT22;3007;50.770;0.250;2023-03-01T01:35:56;1.20;99.90
5962;DHT22;3007;50.770;0.250;2023-03-01T01:38:23;1.20;99.90
5962;DHT22;3007;50.770;0.250;2023-03-01T01:40:51;1.20;99.90
5962;DHT22;3007;50.770;0.250;2023-03-01T01:43:21;1.20;99.90
5962;DHT22;3007;50.770;0.250;2023-03-01T01:45:50;1.20;99.90
5962;DHT22;3007;50.770;0.250;2023-03-01T01:48:20;1.20;99.90
5962;DHT22;3007;50.770;0.250;2023-03-01T01:50:53;1.20;99.90
5962;DHT22;3007;50.770;0.250;2023-03-01T01:53:21;1.20;99.90
5962;DHT22;3007;50.770;0.250;2023-03-01T01:55:53;1.20;99.90
5962;DHT22;3007;50.770;0.250;2023-03-01T01:58:22;1.20;99.90
5962;DHT22;3007;50.770;0.250;2023-03-01T02:00:52;1.30;99.90
5962;DHT22;3007;50.770;0.250;2023-03-01T02:03:24;1.30;99.90
5962;DHT22;3007;50.770;0.250;2023-03-01T02:05:58;1.40;99.90
5962;DHT22;3007;50.770;0.250;2023-03-01T02:08:28;1.50;99.90
5962;DHT22;3007;50.770;0.250;2023-03-01T02:10:57;1.50;99.90
5962;DHT22;3007;50.770;0.250;2023-03-01T02:13:25;1.70;99.90
5962;DHT22;3007;50.770;0.250;2023-03-01T02:15:54;1.70;99.90
5962;DHT22;3007;50.770;0.250;2023-03-01T02:18:22;1.80;99.90
5962;DHT22;3007;50.770;0.250;2023-03-01T02:21:07;1.80;99.90
5962;DHT22;3007;50.770;0.250;2023-03-01T02:23:36;1.90;99.90
5962;DHT22;3007;50.770;0.250;2023-03-01T02:26:07;1.90;99.90
5962;DHT22;3007;50.770;0.250;2023-03-01T02:28:39;2.00;99.90
5962;DHT22;3007;50.770;0.250;2023-03-01T02:31:08;2.00;99.90
5962;DHT22;3007;50.770;0.250;2023-03-01T02:33:53;2.00;99.90
5962;DHT22;3007;50.770;0.250;2023-03-01T02:36:23;2.10;99.90
5962;DHT22;3007;50.770;0.250;2023-03-01T02:38:53;2.10;99.90
5962;DHT22;3007;50.770;0.250;2023-03-01T02:41:22;2.10;99.90
5962;DHT22;3007;50.770;0.250;2023-03-01T02:43:50;2.10;99.90
5962;DHT22;3007;50.770;0.250;2023-03-01T02:46:20;2.10;99.90
5962;DHT22;3007;50.770;0.250;2023-03-01T02:48:49;2.10;99.90
5962;DHT22;3007;50.770;0.250;2023-03-01T02:51:31;2.20;99.90
5962;DHT22;3007;50.770;0.250;2023-03-01T02:54:08;2.20;99.90
5962;DHT22;3007;50.770;0.250;2023-03-01T02:56:37;2.20;99.90
5962;DHT22;3007;50.770;0.250;2023-03-01T02:59:05;2.20;99.90
5962;DHT22;3007;50.770;0.250;2023-03-01T03:01:33;2.20;99.90
5962;DHT22;3007;50.770;0.250;2023-03-01T03:04:04;2.30;99.90
5962;DHT22;3007;50.770;0.250;2023-03-01T03:06:32;2.30;99.90
5962;DHT22;3007;50.770;0.250;2023-03-01T03:08:59;2.30;99.90
5962;DHT22;3007;50.770;0.250;2023-03-01T03:11:26;2.30;99.90
5962;DHT22;3007;50.770;0.250;2023-03-01T03:13:53;2.30;99.90
5962;DHT22;3007;50.770;0.250;2023-03-01T03:16:21;2.20;99.90
5962;DHT22;3007;50.770;0.250;2023-03-01T03:18:48;2.20;99.90
5962;DHT22;3007;50.770;0.250;2023-03-01T03:21:16;2.20;99.90
5962;DHT22;3007;50.770;0.250;2023-03-01T03:23:43;2.20;99.90
5962;DHT22;3007;50.770;0.250;2023-03-01T03:26:10;2.20;99.90
5962;DHT22;3007;50.770;0.250;2023-03-01T03:28:39;2.20;99.90
5962;DHT22;3007;50.770;0.250;2023-03-01T03:31:07;2.20;99.90
5962;DHT22;3007;50.770;0.250;2023-03-01T03:33:35;2.20;99.90
5962;DHT22;3007;50.770;0.250;2023-03-01T03:36:03;2.20;99.90
5962;DHT22;3007;50.770;0.250;2023-03-01T03:38:30;2.20;99.90
5962;DHT22;3007;50.770;0.250;2023-03-01T03:41:02;2.20;99.90
5962;DHT22;3007;50.770;0.250;2023-03-01T03:43:30;2.20;99.90
5962;DHT22;3007;50.770;0.250;2023-03-01T03:45:58;2.10;99.90
5962;DHT22;3007;50.770;0.250;2023-03-01T03:48:25;2.10;99.90
5962;DHT22;3007;50.770;0.250;2023-03-01T03:50:54;2.10;99.90
5962;DHT22;3007;50.770;0.250;2023-03-01T03:53:24;2.00;99.90
5962;DHT22;3007;50.770;0.250;2023-03-01T03:55:52;2.00;99.90
5962;DHT22;3007;50.770;0.250;2023-03-01T03:58:20;1.90;99.90
5962;DHT22;3007;50.770;0.250;2023-03-01T04:00:49;1.90;99.90
5962;DHT22;3007;50.770;0.250;2023-03-01T04:03:17;1.80;99.90
5962;DHT22;3007;50.770;0.250;2023-03-01T04:05:46;1.80;99.90
5962;DHT22;3007;50.770;0.250;2023-03-01T04:08:14;1.70;99.90
5962;DHT22;3007;50.770;0.250;2023-03-01T04:10:44;1.70;99.90
5962;DHT22;3007;50.770;0.250;2023-03-01T04:13:13;1.60;99.90
5962;DHT22;3007;50.770;0.250;2023-03-01T04:15:41;1.60;99.90
5962;DHT22;3007;50.770;0.250;2023-03-01T04:18:15;1.50;99.90
5962;DHT22;3007;50.770;0.250;2023-03-01T04:20:42;1.50;99.90
5962;DHT22;3007;50.770;0.250;2023-03-01T04:23:12;1.50;99.90
5962;DHT22;3007;50.770;0.250;2023-03-01T04:25:46;1.50;99.90
5962;DHT22;3007;50.770;0.250;2023-03-01T04:28:15;1.40;99.90
5962;DHT22;3007;50.770;0.250;2023-03-01T04:30:42;1.40;99.90
5962;DHT22;3007;50.770;0.250;2023-03-01T04:33:10;1.40;99.90
5962;DHT22;3007;50.770;0.250;2023-03-01T04:35:38;1.40;99.90
5962;DHT22;3007;50.770;0.250;2023-03-01T04:38:06;1.40;99.90
5962;DHT22;3007;50.770;0.250;2023-03-01T04:40:33;1.40;99.90
5962;DHT22;3007;50.770;0.250;2023-03-01T04:43:02;1.30;99.90
5962;DHT22;3007;50.770;0.250;2023-03-01T04:45:31;1.30;99.90
5962;DHT22;3007;50.770;0.250;2023-03-01T04:48:00;1.40;99.90
5962;DHT22;3007;50.770;0.250;2023-03-01T04:50:27;1.30;99.90
5962;DHT22;3007;50.770;0.250;2023-03-01T04:52:54;1.30;99.90
5962;DHT22;3007;50.770;0.250;2023-03-01T04:55:24;1.30;99.90
5962;DHT22;3007;50.770;0.250;2023-03-01T04:57:51;1.30;99.90
5962;DHT22;3007;50.770;0.250;2023-03-01T05:00:20;1.30;99.90
5962;DHT22;3007;50.770;0.250;2023-03-01T05:02:49;1.30;99.90
5962;DHT22;3007;50.770;0.250;2023-03-01T05:05:24;1.40;99.90
5962;DHT22;3007;50.770;0.250;2023-03-01T05:07:56;1.30;99.90
5962;DHT22;3007;50.770;0.250;2023-03-01T05:10:24;1.30;99.90
5962;DHT22;3007;50.770;0.250;2023-03-01T05:12:51;1.30;99.90
5962;DHT22;3007;50.770;0.250;2023-03-01T05:15:20;1.30;99.90
5962;DHT22;3007;50.770;0.250;2023-03-01T05:17:51;1.30;99.90
5962;DHT22;3007;50.770;0.250;2023-03-01T05:20:18;1.30;99.90
5962;DHT22;3007;50.770;0.250;2023-03-01T05:22:48;1.30;99.90
5962;DHT22;3007;50.770;0.250;2023-03-01T05:25:15;1.30;99.90
5962;DHT22;3007;50.770;0.250;2023-03-01T05:27:42;1.40;99.90
5962;DHT22;3007;50.770;0.250;2023-03-01T05:30:10;1.30;99.90
5962;DHT22;3007;50.770;0.250;2023-03-01T05:32:44;1.30;99.90
5962;DHT22;3007;50.770;0.250;2023-03-01T05:35:13;1.30;99.90
5962;DHT22;3007;50.770;0.250;2023-03-01T05:37:41;1.40;99.90
5962;DHT22;3007;50.770;0.250;2023-03-01T05:40:10;1.40;99.90
5962;DHT22;3007;50.770;0.250;2023-03-01T05:42:44;1.40;99.90
5962;DHT22;3007;50.770;0.250;2023-03-01T05:45:12;1.40;99.90
5962;DHT22;3007;50.770;0.250;2023-03-01T05:47:39;1.40;99.90
5962;DHT22;3007;50.770;0.250;2023-03-01T05:50:12;1.40;99.90
5962;DHT22;3007;50.770;0.250;2023-03-01T05:52:39;1.40;99.90
5962;DHT22;3007;50.770;0.250;2023-03-01T05:55:09;1.40;99.90
5962;DHT22;3007;50.770;0.250;2023-03-01T05:57:36;1.40;99.90
5962;DHT22;3007;50.770;0.250;2023-03-01T06:00:04;1.40;99.90
5962;DHT22;3007;50.770;0.250;2023-03-01T06:02:31;1.40;99.90
5962;DHT22;3007;50.770;0.250;2023-03-01T06:04:58;1.40;99.90
5962;DHT22;3007;50.770;0.250;2023-03-01T06:07:27;1.40;99.90
5962;DHT22;3007;50.770;0.250;2023-03-01T06:09:54;1.40;99.90
5962;DHT22;3007;50.770;0.250;2023-03-01T06:12:21;1.40;99.90
5962;DHT22;3007;50.770;0.250;2023-03-01T06:14:48;1.40;99.90
5962;DHT22;3007;50.770;0.250;2023-03-01T06:17:15;1.40;99.90
5962;DHT22;3007;50.770;0.250;2023-03-01T06:19:41;1.50;99.90
5962;DHT22;3007;50.770;0.250;2023-03-01T06:22:08;1.50;99.90
5962;DHT22;3007;50.770;0.250;2023-03-01T06:24:37;1.50;99.90
5962;DHT22;3007;50.770;0.250;2023-03-01T06:27:03;1.50;99.90
5962;DHT22;3007;50.770;0.250;2023-03-01T06:29:31;1.50;99.90
5962;DHT22;3007;50.770;0.250;2023-03-01T06:31:57;1.50;99.90
5962;DHT22;3007;50.770;0.250;2023-03-01T06:34:24;1.50;99.90
5962;DHT22;3007;50.770;0.250;2023-03-01T06:36:51;1.50;99.90
5962;DHT22;3007;50.770;0.250;2023-03-01T06:39:18;1.60;99.90
5962;DHT22;3007;50.770;0.250;2023-03-01T06:41:46;1.60;99.90
5962;DHT22;3007;50.770;0.250;2023-03-01T06:44:13;1.60;99.90
5962;DHT22;3007;50.770;0.250;2023-03-01T06:46:40;1.60;99.90
5962;DHT22;3007;50.770;0.250;2023-03-01T06:49:07;1.70;99.90
5962;DHT22;3007;50.770;0.250;2023-03-01T06:51:35;1.60;99.90
5962;DHT22;3007;50.770;0.250;2023-03-01T06:54:03;1.60;99.90
5962;DHT22;3007;50.770;0.250;2023-03-01T06:56:30;1.60;99.90
5962;DHT22;3007;50.770;0.250;2023-03-01T06:58:59;1.70;99.90
5962;DHT22;3007;50.770;0.250;2023-03-01T07:01:26;1.70;99.90
5962;DHT22;3007;50.770;0.250;2023-03-01T07:03:53;1.70;99.90
5962;DHT22;3007;50.770;0.250;2023-03-01T07:06:20;1.70;99.90
5962;DHT22;3007;50.770;0.250;2023-03-01T07:08:47;1.70;99.90
5962;DHT22;3007;50.770;0.250;2023-03-01T07:11:14;1.80;99.90
5962;DHT22;3007;50.770;0.250;2023-03-01T07:13:41;1.80;99.90
5962;DHT22;3007;50.770;0.250;2023-03-01T07:16:10;1.80;99.90
5962;DHT22;3007;50.770;0.250;2023-03-01T07:18:37;1.80;99.90
5962;DHT22;3007;50.770;0.250;2023-03-01T07:21:05;1.90;99.90
5962;DHT22;3007;50.770;0.250;2023-03-01T07:23:32;1.80;99.90
5962;DHT22;3007;50.770;0.250;2023-03-01T07:25:59;1.90;99.90
5962;DHT22;3007;50.770;0.250;2023-03-01T07:28:27;2.00;99.90
5962;DHT22;3007;50.770;0.250;2023-03-01T07:30:55;2.00;99.90
5962;DHT22;3007;50.770;0.250;2023-03-01T07:33:23;2.00;99.90
5962;DHT22;3007;50.770;0.250;2023-03-01T07:35:56;2.20;99.90
5962;DHT22;3007;50.770;0.250;2023-03-01T07:38:24;2.30;99.90
5962;DHT22;3007;50.770;0.250;2023-03-01T07:40:51;2.30;99.90
5962;DHT22;3007;50.770;0.250;2023-03-01T07:43:18;2.40;99.90
5962;DHT22;3007;50.770;0.250;2023-03-01T07:45:46;2.50;99.90
5962;DHT22;3007;50.770;0.250;2023-03-01T07:48:13;2.60;99.90
5962;DHT22;3007;50.770;0.250;2023-03-01T07:50:41;2.60;99.90
5962;DHT22;3007;50.770;0.250;2023-03-01T07:53:08;2.70;99.90
5962;DHT22;3007;50.770;0.250;2023-03-01T07:55:35;2.70;99.90
5962;DHT22;3007;50.770;0.250;2023-03-01T07:58:05;2.80;99.90
5962;DHT22;3007;50.770;0.250;2023-03-01T08:00:32;2.80;99.90
5962;DHT22;3007;50.770;0.250;2023-03-01T08:02:59;2.80;99.90
5962;DHT22;3007;50.770;0.250;2023-03-01T08:05:27;2.90;99.90
5962;DHT22;3007;50.770;0.250;2023-03-01T08:07:56;3.00;99.90
5962;DHT22;3007;50.770;0.250;2023-03-01T08:10:22;3.00;99.90
5962;DHT22;3007;50.770;0.250;2023-03-01T08:12:52;3.10;99.90
5962;DHT22;3007;50.770;0.250;2023-03-01T08:15:19;3.10;99.90
5962;DHT22;3007;50.770;0.250;2023-03-01T08:17:48;3.10;99.90
5962;DHT22;3007;50.770;0.250;2023-03-01T08:20:16;3.10;99.90
5962;DHT22;3007;50.770;0.250;2023-03-01T08:22:43;3.20;99.90
5962;DHT22;3007;50.770;0.250;2023-03-01T08:25:11;3.20;99.90
5962;DHT22;3007;50.770;0.250;2023-03-01T08:27:38;3.30;99.90
5962;DHT22;3007;50.770;0.250;2023-03-01T08:30:06;3.30;99.90
5962;DHT22;3007;50.770;0.250;2023-03-01T08:32:36;3.30;99.90
5962;DHT22;3007;50.770;0.250;2023-03-01T08:35:04;3.40;99.90
5962;DHT22;3007;50.770;0.250;2023-03-01T08:37:31;3.40;99.90
5962;DHT22;3007;50.770;0.250;2023-03-01T08:39:58;3.50;99.90
5962;DHT22;3007;50.770;0.250;2023-03-01T08:42:27;3.50;99.90
5962;DHT22;3007;50.770;0.250;2023-03-01T08:44:54;3.60;99.90
5962;DHT22;3007;50.770;0.250;2023-03-01T08:47:22;3.70;99.90
5962;DHT22;3007;50.770;0.250;2023-03-01T08:49:50;3.80;99.90
5962;DHT22;3007;50.770;0.250;2023-03-01T08:52:17;3.90;99.90
5962;DHT22;3007;50.770;0.250;2023-03-01T08:54:44;3.90;99.90
5962;DHT22;3007;50.770;0.250;2023-03-01T08:57:10;3.90;99.90
5962;DHT22;3007;50.770;0.250;2023-03-01T08:59:39;4.00;99.90
5962;DHT22;3007;50.770;0.250;2023-03-01T09:02:15;4.00;99.90
5962;DHT22;3007;50.770;0.250;2023-03-01T09:04:47;4.00;99.90
5962;DHT22;3007;50.770;0.250;2023-03-01T09:07:14;4.10;99.90
5962;DHT22;3007;50.770;0.250;2023-03-01T09:09:41;4.10;99.90
5962;DHT22;3007;50.770;0.250;2023-03-01T09:12:09;4.20;99.90
5962;DHT22;3007;50.770;0.250;2023-03-01T09:14:36;4.20;99.90
5962;DHT22;3007;50.770;0.250;2023-03-01T09:17:05;4.30;99.90
5962;DHT22;3007;50.770;0.250;2023-03-01T09:19:35;4.30;99.90
5962;DHT22;3007;50.770;0.250;2023-03-01T09:22:03;4.40;99.90
5962;DHT22;3007;50.770;0.250;2023-03-01T09:24:33;4.40;99.90
5962;DHT22;3007;50.770;0.250;2023-03-01T09:27:00;4.40;99.90
5962;DHT22;3007;50.770;0.250;2023-03-01T09:29:27;4.50;99.90
5962;DHT22;3007;50.770;0.250;2023-03-01T09:31:54;4.60;99.90
5962;DHT22;3007;50.770;0.250;2023-03-01T09:34:23;4.70;99.90
5962;DHT22;3007;50.770;0.250;2023-03-01T09:36:53;4.80;99.90
5962;DHT22;3007;50.770;0.250;2023-03-01T09:39:24;4.80;99.90
5962;DHT22;3007;50.770;0.250;2023-03-01T09:42:01;4.90;99.90
5962;DHT22;3007;50.770;0.250;2023-03-01T09:44:36;5.00;99.90
5962;DHT22;3007;50.770;0.250;2023-03-01T09:47:05;5.10;99.90
5962;DHT22;3007;50.770;0.250;2023-03-01T09:49:41;5.10;99.90
5962;DHT22;3007;50.770;0.250;2023-03-01T09:52:21;5.20;99.90
5962;DHT22;3007;50.770;0.250;2023-03-01T09:54:53;5.30;99.90
5962;DHT22;3007;50.770;0.250;2023-03-01T09:57:30;5.20;99.90
5962;DHT22;3007;50.770;0.250;2023-03-01T10:00:11;5.20;99.90
5962;DHT22;3007;50.770;0.250;2023-03-01T10:02:43;5.00;99.90
5962;DHT22;3007;50.770;0.250;2023-03-01T10:05:28;5.00;99.90
5962;DHT22;3007;50.770;0.250;2023-03-01T10:08:06;4.90;99.90
5962;DHT22;3007;50.770;0.250;2023-03-01T10:10:44;4.90;99.90
5962;DHT22;3007;50.770;0.250;2023-03-01T10:13:20;5.00;99.90
5962;DHT22;3007;50.770;0.250;2023-03-01T10:15:56;5.10;99.90
5962;DHT22;3007;50.770;0.250;2023-03-01T10:18:26;5.20;99.90
5962;DHT22;3007;50.770;0.250;2023-03-01T10:20:57;5.30;99.90
5962;DHT22;3007;50.770;0.250;2023-03-01T10:23:26;5.50;99.90
5962;DHT22;3007;50.770;0.250;2023-03-01T10:26:08;5.70;99.90
5962;DHT22;3007;50.770;0.250;2023-03-01T10:28:48;5.90;99.90
5962;DHT22;3007;50.770;0.250;2023-03-01T10:31:19;6.10;99.90
5962;DHT22;3007;50.770;0.250;2023-03-01T10:33:54;6.30;99.90
5962;DHT22;3007;50.770;0.250;2023-03-01T10:36:24;6.40;99.90
5962;DHT22;3007;50.770;0.250;2023-03-01T10:38:57;6.60;99.90
5962;DHT22;3007;50.770;0.250;2023-03-01T10:41:28;6.60;99.90
5962;DHT22;3007;50.770;0.250;2023-03-01T10:43:59;6.70;99.90
5962;DHT22;3007;50.770;0.250;2023-03-01T10:46:28;6.80;99.90
5962;DHT22;3007;50.770;0.250;2023-03-01T10:49:12;6.90;99.90
5962;DHT22;3007;50.770;0.250;2023-03-01T10:51:47;7.00;99.90
5962;DHT22;3007;50.770;0.250;2023-03-01T10:54:20;7.00;99.90
5962;DHT22;3007;50.770;0.250;2023-03-01T10:56:49;7.10;99.90
5962;DHT22;3007;50.770;0.250;2023-03-01T10:59:28;7.20;99.90
5962;DHT22;3007;50.770;0.250;2023-03-01T11:02:21;7.30;99.90
5962;DHT22;3007;50.770;0.250;2023-03-01T11:04:59;7.30;99.90
5962;DHT22;3007;50.770;0.250;2023-03-01T11:07:28;7.20;99.90
5962;DHT22;3007;50.770;0.250;2023-03-01T11:09:58;7.10;99.90
5962;DHT22;3007;50.770;0.250;2023-03-01T11:12:25;7.10;99.90
5962;DHT22;3007;50.770;0.250;2023-03-01T11:14:55;7.20;99.90
5962;DHT22;3007;50.770;0.250;2023-03-01T11:17:27;7.30;99.90
5962;DHT22;3007;50.770;0.250;2023-03-01T11:20:17;7.30;99.90
5962;DHT22;3007;50.770;0.250;2023-03-01T11:22:50;7.40;99.90
5962;DHT22;3007;50.770;0.250;2023-03-01T11:25:19;7.40;99.90
5962;DHT22;3007;50.770;0.250;2023-03-01T11:27:52;7.40;99.90
5962;DHT22;3007;50.770;0.250;2023-03-01T11:30:26;7.40;99.90
5962;DHT22;3007;50.770;0.250;2023-03-01T11:33:05;7.50;99.90
5962;DHT22;3007;50.770;0.250;2023-03-01T11:35:42;7.50;99.90
5962;DHT22;3007;50.770;0.250;2023-03-01T11:38:17;7.60;99.90
5962;DHT22;3007;50.770;0.250;2023-03-01T11:40:52;7.50;99.90
5962;DHT22;3007;50.770;0.250;2023-03-01T11:43:30;7.50;99.90
5962;DHT22;3007;50.770;0.250;2023-03-01T11:52:02;7.50;99.90
5962;DHT22;3007;50.770;0.250;2023-03-01T11:54:45;7.50;99.90
5962;DHT22;3007;50.770;0.250;2023-03-01T11:57:41;7.50;99.90
5962;DHT22;3007;50.770;0.250;2023-03-01T12:03:25;7.50;99.90
5962;DHT22;3007;50.770;0.250;2023-03-01T12:06:19;7.60;99.90
5962;DHT22;3007;50.770;0.250;2023-03-01T12:08:54;7.60;99.90
5962;DHT22;3007;50.770;0.250;2023-03-01T12:11:34;7.60;99.90
5962;DHT22;3007;50.770;0.250;2023-03-01T12:20:14;7.70;99.90
5962;DHT22;3007;50.770;0.250;2023-03-01T12:22:59;7.70;99.90
5962;DHT22;3007;50.770;0.250;2023-03-01T12:25:34;7.80;99.90
5962;DHT22;3007;50.770;0.250;2023-03-01T12:28:19;7.90;99.90
5962;DHT22;3007;50.770;0.250;2023-03-01T12:31:08;8.00;99.90
5962;DHT22;3007;50.770;0.250;2023-03-01T12:33:45;8.00;99.90
5962;DHT22;3007;50.770;0.250;2023-03-01T12:36:41;8.10;99.90
5962;DHT22;3007;50.770;0.250;2023-03-01T12:39:24;8.10;99.90
5962;DHT22;3007;50.770;0.250;2023-03-01T12:42:01;8.10;99.90
5962;DHT22;3007;50.770;0.250;2023-03-01T12:44:50;8.10;99.90
5962;DHT22;3007;50.770;0.250;2023-03-01T12:47:30;8.20;99.90
5962;DHT22;3007;50.770;0.250;2023-03-01T12:50:05;8.20;99.90
5962;DHT22;3007;50.770;0.250;2023-03-01T12:52:44;8.10;99.90
5962;DHT22;3007;50.770;0.250;2023-03-01T12:55:25;7.90;99.90
5962;DHT22;3007;50.770;0.250;2023-03-01T12:57:59;7.80;99.90
5962;DHT22;3007;50.770;0.250;2023-03-01T13:00:35;7.80;99.90
5962;DHT22;3007;50.770;0.250;2023-03-01T13:03:13;7.70;99.90
5962;DHT22;3007;50.770;0.250;2023-03-01T13:05:51;7.60;99.90
5962;DHT22;3007;50.770;0.250;2023-03-01T13:08:26;7.60;99.90
5962;DHT22;3007;50.770;0.250;2023-03-01T13:10:59;7.60;99.90
5962;DHT22;3007;50.770;0.250;2023-03-01T13:13:28;7.50;99.90
5962;DHT22;3007;50.770;0.250;2023-03-01T13:15:57;7.50;99.90
5962;DHT22;3007;50.770;0.250;2023-03-01T13:18:32;7.50;99.90
5962;DHT22;3007;50.770;0.250;2023-03-01T13:21:01;7.40;99.90
5962;DHT22;3007;50.770;0.250;2023-03-01T13:23:31;7.40;99.90
5962;DHT22;3007;50.770;0.250;2023-03-01T13:26:14;7.40;99.90
5962;DHT22;3007;50.770;0.250;2023-03-01T13:28:53;7.40;99.90
5962;DHT22;3007;50.770;0.250;2023-03-01T13:34:43;7.40;99.90
5962;DHT22;3007;50.770;0.250;2023-03-01T13:37:18;7.40;99.90
5962;DHT22;3007;50.770;0.250;2023-03-01T13:39:46;7.30;99.90
5962;DHT22;3007;50.770;0.250;2023-03-01T13:42:35;7.30;99.90
5962;DHT22;3007;50.770;0.250;2023-03-01T13:45:05;7.30;99.90
5962;DHT22;3007;50.770;0.250;2023-03-01T13:47:41;7.40;99.90
5962;DHT22;3007;50.770;0.250;2023-03-01T13:50:18;7.30;99.90
5962;DHT22;3007;50.770;0.250;2023-03-01T13:52:50;7.40;99.90
5962;DHT22;3007;50.770;0.250;2023-03-01T13:55:21;7.40;99.90
5962;DHT22;3007;50.770;0.250;2023-03-01T13:57:51;7.40;99.90
5962;DHT22;3007;50.770;0.250;2023-03-01T14:00:32;7.60;99.90
5962;DHT22;3007;50.770;0.250;2023-03-01T14:03:10;7.60;99.90
5962;DHT22;3007;50.770;0.250;2023-03-01T14:05:39;7.70;99.90
5962;DHT22;3007;50.770;0.250;2023-03-01T14:08:20;7.60;99.90
5962;DHT22;3007;50.770;0.250;2023-03-01T14:10:55;7.60;99.90
5962;DHT22;3007;50.770;0.250;2023-03-01T14:13:31;7.50;93.20
5962;DHT22;3007;50.770;0.250;2023-03-01T14:16:14;7.50;94.90
5962;DHT22;3007;50.770;0.250;2023-03-01T14:18:52;7.50;99.90
5962;DHT22;3007;50.770;0.250;2023-03-01T14:21:23;7.50;99.90
5962;DHT22;3007;50.770;0.250;2023-03-01T14:23:51;7.50;99.90
5962;DHT22;3007;50.770;0.250;2023-03-01T14:26:21;7.50;99.90
5962;DHT22;3007;50.770;0.250;2023-03-01T14:28:48;7.50;99.90
5962;DHT22;3007;50.770;0.250;2023-03-01T14:31:39;7.50;99.90
5962;DHT22;3007;50.770;0.250;2023-03-01T14:34:19;7.50;99.90
5962;DHT22;3007;50.770;0.250;2023-03-01T14:36:47;7.50;99.90
5962;DHT22;3007;50.770;0.250;2023-03-01T14:39:19;7.50;99.90
5962;DHT22;3007;50.770;0.250;2023-03-01T14:41:47;7.50;99.90
5962;DHT22;3007;50.770;0.250;2023-03-01T14:44:17;7.50;99.90
5962;DHT22;3007;50.770;0.250;2023-03-01T14:46:46;7.60;99.90
5962;DHT22;3007;50.770;0.250;2023-03-01T14:49:16;7.60;99.90
5962;DHT22;3007;50.770;0.250;2023-03-01T14:51:51;7.50;99.90
5962;DHT22;3007;50.770;0.250;2023-03-01T14:54:23;7.60;99.90
5962;DHT22;3007;50.770;0.250;2023-03-01T14:56:52;7.60;99.90
5962;DHT22;3007;50.770;0.250;2023-03-01T14:59:22;7.50;99.90
5962;DHT22;3007;50.770;0.250;2023-03-01T15:01:50;7.60;99.90
5962;DHT22;3007;50.770;0.250;2023-03-01T15:04:18;7.60;99.90
5962;DHT22;3007;50.770;0.250;2023-03-01T15:06:47;7.60;99.90
5962;DHT22;3007;50.770;0.250;2023-03-01T15:09:18;7.60;99.90
5962;DHT22;3007;50.770;0.250;2023-03-01T15:11:45;7.60;99.90
5962;DHT22;3007;50.770;0.250;2023-03-01T15:14:38;7.60;99.90
5962;DHT22;3007;50.770;0.250;2023-03-01T15:17:19;7.60;99.90
5962;DHT22;3007;50.770;0.250;2023-03-01T15:19:47;7.50;99.90
5962;DHT22;3007;50.770;0.250;2023-03-01T15:22:15;7.50;99.90
5962;DHT22;3007;50.770;0.250;2023-03-01T15:24:49;7.40;99.90
5962;DHT22;3007;50.770;0.250;2023-03-01T15:27:19;7.40;99.90
5962;DHT22;3007;50.770;0.250;2023-03-01T15:29:51;7.40;99.90
5962;DHT22;3007;50.770;0.250;2023-03-01T15:32:27;7.40;99.90
5962;DHT22;3007;50.770;0.250;2023-03-01T15:34:57;7.40;99.90
5962;DHT22;3007;50.770;0.250;2023-03-01T15:37:39;7.50;99.90
5962;DHT22;3007;50.770;0.250;2023-03-01T15:40:25;7.50;99.90
5962;DHT22;3007;50.770;0.250;2023-03-01T15:42:57;7.60;99.90
5962;DHT22;3007;50.770;0.250;2023-03-01T15:45:26;7.60;99.90
5962;DHT22;3007;50.770;0.250;2023-03-01T15:47:55;7.60;99.90
5962;DHT22;3007;50.770;0.250;2023-03-01T15:50:26;7.70;99.90
5962;DHT22;3007;50.770;0.250;2023-03-01T15:52:54;7.70;99.90
5962;DHT22;3007;50.770;0.250;2023-03-01T15:55:27;7.60;99.90
5962;DHT22;3007;50.770;0.250;2023-03-01T15:57:59;7.60;99.90
5962;DHT22;3007;50.770;0.250;2023-03-01T16:00:27;7.60;99.90
5962;DHT22;3007;50.770;0.250;2023-03-01T16:02:54;7.60;99.90
5962;DHT22;3007;50.770;0.250;2023-03-01T16:05:22;7.50;99.90
5962;DHT22;3007;50.770;0.250;2023-03-01T16:07:53;7.50;99.90
5962;DHT22;3007;50.770;0.250;2023-03-01T16:10:20;7.50;99.90
5962;DHT22;3007;50.770;0.250;2023-03-01T16:12:49;7.50;99.90
5962;DHT22;3007;50.770;0.250;2023-03-01T16:15:21;7.50;99.90
5962;DHT22;3007;50.770;0.250;2023-03-01T16:17:48;7.40;99.90
5962;DHT22;3007;50.770;0.250;2023-03-01T16:20:16;7.30;99.90
5962;DHT22;3007;50.770;0.250;2023-03-01T16:22:43;7.30;99.90
5962;DHT22;3007;50.770;0.250;2023-03-01T16:25:16;7.30;99.90
5962;DHT22;3007;50.770;0.250;2023-03-01T16:27:47;7.30;99.90
5962;DHT22;3007;50.770;0.250;2023-03-01T16:30:18;7.20;99.90
5962;DHT22;3007;50.770;0.250;2023-03-01T16:32:47;7.30;99.90
5962;DHT22;3007;50.770;0.250;2023-03-01T16:35:16;7.30;99.90
5962;DHT22;3007;50.770;0.250;2023-03-01T16:37:43;7.30;99.90
5962;DHT22;3007;50.770;0.250;2023-03-01T16:40:17;7.20;99.90
5962;DHT22;3007;50.770;0.250;2023-03-01T16:42:46;7.20;99.90
5962;DHT22;3007;50.770;0.250;2023-03-01T16:45:13;7.20;99.90
5962;DHT22;3007;50.770;0.250;2023-03-01T16:47:44;7.20;99.90
5962;DHT22;3007;50.770;0.250;2023-03-01T16:50:11;7.10;99.90
5962;DHT22;3007;50.770;0.250;2023-03-01T16:52:38;7.10;99.90
5962;DHT22;3007;50.770;0.250;2023-03-01T16:55:06;7.00;99.90
5962;DHT22;3007;50.770;0.250;2023-03-01T16:57:35;7.00;99.90
5962;DHT22;3007;50.770;0.250;2023-03-01T17:00:03;7.00;99.90